Time;durP1;ratioP1;P1;durP2;ratioP2;P2;SDS_P1;SDS_P2;PMS_P1;PMS_P2;Temp;Humidity;BMP_temperature;BMP_pressure;BME280_temperature;BME280_humidity;BME280_pressure;Samples;Min_cycle;Max_cycle;Signal;HPM_P1;HPM_P2
2023/02/09 00:01:06;;;;;;;13.05;8.82;;;-1.50;99.90;;;;;;4994268;28;20085;-79
2023/02/09 00:03:33;;;;;;;14.45;9.63;;;-1.50;99.90;;;;;;4993073;28;20018;-79
2023/02/09 00:06:04;;;;;;;15.63;8.65;;;-1.50;99.90;;;;;;4994007;28;20027;-79
2023/02/09 00:08:31;;;;;;;13.02;9.50;;;-1.40;99.90;;;;;;4993318;28;20038;-78
2023/02/09 00:10:57;;;;;;;17.60;10.13;;;-1.50;99.90;;;;;;4993964;28;20529;-79
2023/02/09 00:13:23;;;;;;;13.82;9.98;;;-1.40;99.90;;;;;;4994299;28;20101;-79
2023/02/09 00:15:55;;;;;;;14.60;10.20;;;-1.40;99.90;;;;;;4994135;28;20027;-78
2023/02/09 00:18:22;;;;;;;16.23;9.77;;;-1.40;99.90;;;;;;4993674;28;20030;-78
2023/02/09 00:20:59;;;;;;;15.32;9.90;;;-1.40;99.90;;;;;;4994119;28;20018;-77
2023/02/09 00:23:27;;;;;;;20.27;11.30;;;-1.40;99.90;;;;;;4992626;28;20057;-79
2023/02/09 00:25:53;;;;;;;16.33;10.43;;;-1.40;99.90;;;;;;4993960;28;20049;-77
2023/02/09 00:28:20;;;;;;;15.85;11.50;;;-1.40;99.90;;;;;;4993587;28;20081;-79
2023/02/09 00:30:46;;;;;;;16.50;13.18;;;-1.40;99.90;;;;;;4993360;28;20022;-76
2023/02/09 00:33:12;;;;;;;17.83;9.93;;;-1.50;99.90;;;;;;4992137;28;20057;-74
2023/02/09 00:35:41;;;;;;;14.98;10.07;;;-1.50;99.90;;;;;;4993689;28;20019;-76
2023/02/09 00:38:12;;;;;;;19.95;11.77;;;-1.50;99.90;;;;;;4993263;28;20038;-76
2023/02/09 00:40:39;;;;;;;20.05;12.15;;;-1.50;99.90;;;;;;4993447;28;20022;-75
2023/02/09 00:43:06;;;;;;;17.77;10.75;;;-1.40;99.90;;;;;;4992656;28;20049;-75
2023/02/09 00:45:32;;;;;;;17.15;11.48;;;-1.40;99.90;;;;;;4993511;28;20045;-76
2023/02/09 00:47:58;;;;;;;16.10;10.85;;;-1.40;99.90;;;;;;4993828;28;20404;-76
2023/02/09 00:50:25;;;;;;;20.48;11.32;;;-1.40;99.90;;;;;;4993245;28;20027;-75
2023/02/09 00:52:51;;;;;;;15.73;10.88;;;-1.40;99.90;;;;;;4993303;28;20022;-76
2023/02/09 00:55:17;;;;;;;19.85;12.45;;;-1.40;99.90;;;;;;4992131;28;20389;-76
2023/02/09 00:57:43;;;;;;;19.42;12.63;;;-1.30;99.90;;;;;;4992977;28;20534;-75
2023/02/09 01:00:11;;;;;;;16.80;10.57;;;-1.30;99.90;;;;;;4992192;28;20034;-75
2023/02/09 01:02:37;;;;;;;15.98;11.40;;;-1.30;99.90;;;;;;4991600;28;20498;-77
2023/02/09 01:05:03;;;;;;;19.50;11.85;;;-1.30;99.90;;;;;;5003299;28;20125;-80
2023/02/09 01:07:29;;;;;;;17.73;11.60;;;-1.30;99.90;;;;;;4993389;28;20033;-77
2023/02/09 01:09:56;;;;;;;15.85;10.35;;;-1.30;99.90;;;;;;4993039;28;20058;-76
2023/02/09 01:12:22;;;;;;;19.42;10.85;;;-1.30;99.90;;;;;;4991868;28;20424;-77
2023/02/09 01:14:47;;;;;;;19.27;12.25;;;-1.30;99.90;;;;;;4992705;28;20030;-76
2023/02/09 01:17:13;;;;;;;19.90;11.40;;;-1.30;99.90;;;;;;4992636;28;20018;-77
2023/02/09 01:19:39;;;;;;;19.70;12.98;;;-1.30;99.90;;;;;;4992735;28;20038;-78
2023/02/09 01:22:05;;;;;;;14.93;10.40;;;-1.30;99.90;;;;;;4992511;28;20037;-77
2023/02/09 01:24:31;;;;;;;15.25;9.68;;;-1.30;99.90;;;;;;4993051;28;20117;-76
2023/02/09 01:26:57;;;;;;;14.45;11.35;;;-1.30;99.90;;;;;;4992597;28;20120;-78
2023/02/09 01:29:23;;;;;;;19.05;11.70;;;-1.30;99.90;;;;;;4995851;28;20051;-75
2023/02/09 01:31:49;;;;;;;13.98;9.57;;;-1.30;99.90;;;;;;4992445;28;20023;-75
2023/02/09 01:34:16;;;;;;;15.68;11.25;;;-1.30;99.90;;;;;;4992465;28;20376;-76
2023/02/09 01:36:42;;;;;;;;;;;-1.30;99.90;;;;;;4992725;28;20441;-77
2023/02/09 01:39:11;;;;;;;14.13;9.98;;;-1.20;99.90;;;;;;4992185;28;19952;-76
2023/02/09 01:41:38;;;;;;;13.48;9.40;;;-1.30;99.90;;;;;;4990964;28;20072;-76
2023/02/09 01:44:07;;;;;;;17.38;11.23;;;-1.30;99.90;;;;;;4992245;28;20062;-76
2023/02/09 01:46:35;;;;;;;20.25;12.60;;;-1.30;99.90;;;;;;4991893;28;20018;-77
2023/02/09 01:49:33;;;;;;;19.10;11.65;;;-1.30;99.90;;;;;;4992310;28;20392;-78
2023/02/09 01:52:06;;;;;;;19.10;11.75;;;-1.30;99.90;;;;;;4970011;28;20459;-76
2023/02/09 01:54:37;;;;;;;13.95;10.20;;;-1.20;99.90;;;;;;4992050;28;20026;-77
2023/02/09 01:57:08;;;;;;;17.85;10.85;;;-1.20;99.90;;;;;;4992241;28;20050;-77
2023/02/09 01:59:38;;;;;;;13.25;8.98;;;-1.30;99.90;;;;;;4990852;28;20109;-77
2023/02/09 02:02:06;;;;;;;16.65;11.38;;;-1.20;99.90;;;;;;4992477;28;20030;-76
2023/02/09 02:04:33;;;;;;;15.93;12.18;;;-1.20;99.90;;;;;;4992020;28;20045;-75
2023/02/09 02:07:11;;;;;;;14.63;11.60;;;-1.20;99.90;;;;;;4991993;28;20037;-77
2023/02/09 02:09:37;;;;;;;17.35;11.07;;;-1.20;99.90;;;;;;4992348;28;20547;-78
2023/02/09 02:12:04;;;;;;;18.45;11.63;;;-1.20;99.90;;;;;;4992062;28;20122;-76
2023/02/09 02:14:35;;;;;;;25.40;12.68;;;-1.20;99.90;;;;;;4993541;28;20034;-76
2023/02/09 02:17:38;;;;;;;19.17;11.35;;;-1.20;99.90;;;;;;4995841;28;20026;-77
2023/02/09 02:20:13;;;;;;;15.73;11.82;;;-1.20;99.90;;;;;;5007476;28;20038;-77
2023/02/09 02:23:08;;;;;;;18.05;11.80;;;-1.20;99.90;;;;;;4994613;28;20049;-75
2023/02/09 02:26:00;;;;;;;16.38;11.05;;;-1.20;99.90;;;;;;4994660;28;20033;-76
2023/02/09 02:29:11;;;;;;;18.27;10.45;;;-1.20;99.90;;;;;;4991278;28;20484;-75
2023/02/09 02:31:49;;;;;;;16.00;10.48;;;-1.20;99.90;;;;;;4989458;28;20535;-75
2023/02/09 02:34:21;;;;;;;17.27;11.90;;;-1.20;99.90;;;;;;4990609;28;20077;-78
2023/02/09 02:36:58;;;;;;;18.70;11.85;;;-1.20;99.90;;;;;;4995649;28;20025;-75
2023/02/09 02:39:40;;;;;;;15.95;11.77;;;-1.10;99.90;;;;;;4991743;28;20070;-77
2023/02/09 02:46:01;;;;;;;16.95;12.48;;;-1.10;99.90;;;;;;4988773;28;20033;-76
2023/02/09 02:48:33;;;;;;;20.73;11.77;;;-1.10;99.90;;;;;;4979186;28;20109;-77
2023/02/09 02:51:05;;;;;;;17.42;11.68;;;-1.10;99.90;;;;;;4995239;28;20052;-78
2023/02/09 02:53:35;;;;;;;20.08;12.88;;;-1.10;99.90;;;;;;4995385;28;20023;-76
2023/02/09 02:56:13;;;;;;;18.63;12.82;;;-1.10;99.90;;;;;;4995074;28;20060;-76
2023/02/09 02:58:41;;;;;;;17.90;11.07;;;-1.10;99.90;;;;;;4993743;28;20546;-78
2023/02/09 03:01:12;;;;;;;23.23;15.30;;;-1.10;99.90;;;;;;4995379;28;20033;-77
2023/02/09 03:03:41;;;;;;;19.45;14.00;;;-1.00;99.90;;;;;;4995306;28;20065;-77
2023/02/09 03:06:09;;;;;;;22.80;15.13;;;-1.00;99.90;;;;;;4995266;28;20716;-78
2023/02/09 03:08:53;;;;;;;18.60;12.23;;;-1.00;99.90;;;;;;4995187;28;20108;-78
2023/02/09 03:11:21;;;;;;;23.63;13.90;;;-1.00;99.90;;;;;;4993778;28;20026;-76
2023/02/09 03:13:49;;;;;;;18.83;13.05;;;-1.00;99.90;;;;;;4995171;28;20105;-77
2023/02/09 03:16:20;;;;;;;22.00;13.82;;;-1.00;99.90;;;;;;4994809;28;20057;-76
2023/02/09 03:19:04;;;;;;;22.42;15.38;;;-1.00;99.90;;;;;;4994918;28;20031;-77
2023/02/09 03:21:45;;;;;;;18.58;14.38;;;-1.00;99.90;;;;;;4993434;28;20114;-78
2023/02/09 03:24:25;;;;;;;21.05;14.55;;;-1.00;99.90;;;;;;4994919;28;20116;-77
2023/02/09 03:27:16;;;;;;;22.35;15.18;;;-1.00;99.90;;;;;;4990293;28;20372;-76
2023/02/09 03:29:46;;;;;;;21.60;14.27;;;-0.90;99.90;;;;;;4986075;28;20035;-76
2023/02/09 03:32:13;;;;;;;19.35;13.75;;;-0.90;99.90;;;;;;4994611;28;20503;-78
2023/02/09 03:34:39;;;;;;;20.63;13.73;;;-0.90;99.90;;;;;;4994646;28;20033;-78
2023/02/09 03:37:05;;;;;;;25.25;14.38;;;-1.00;99.90;;;;;;4994656;28;20026;-76
2023/02/09 03:39:33;;;;;;;22.20;13.88;;;-0.90;99.90;;;;;;4994425;28;20034;-74
2023/02/09 03:41:59;;;;;;;17.70;12.93;;;-1.00;99.90;;;;;;4994402;28;20030;-75
2023/02/09 03:44:25;;;;;;;21.02;13.05;;;-0.90;99.90;;;;;;4994889;28;20136;-75
2023/02/09 03:46:52;;;;;;;16.77;11.77;;;-1.00;99.90;;;;;;4993103;28;20023;-76
2023/02/09 03:49:18;;;;;;;22.80;16.25;;;-0.90;99.90;;;;;;4992955;28;20046;-76
2023/02/09 03:51:45;;;;;;;16.50;12.43;;;-0.90;99.90;;;;;;4994644;28;20026;-76
2023/02/09 03:54:11;;;;;;;18.70;12.05;;;-0.90;99.90;;;;;;4994424;28;20104;-75
2023/02/09 03:56:37;;;;;;;19.20;12.95;;;-0.90;99.90;;;;;;4994039;28;20245;-76
2023/02/09 03:59:04;;;;;;;17.90;11.45;;;-0.90;99.90;;;;;;4994262;28;20038;-77
2023/02/09 04:01:32;;;;;;;17.65;13.18;;;-0.90;99.90;;;;;;4992903;28;20022;-76
2023/02/09 04:04:00;;;;;;;;;;;-0.90;99.90;;;;;;4994527;28;20049;-78
2023/02/09 04:06:26;;;;;;;21.10;13.68;;;-0.90;99.90;;;;;;4993970;28;20365;-76
2023/02/09 04:08:51;;;;;;;20.35;13.68;;;-0.90;99.90;;;;;;4994046;28;20431;-78
2023/02/09 04:11:17;;;;;;;23.42;14.38;;;-0.80;99.90;;;;;;4993873;28;20022;-77
2023/02/09 04:13:43;;;;;;;20.73;13.88;;;-0.80;99.90;;;;;;4982634;28;20042;-77
2023/02/09 04:16:09;;;;;;;24.42;16.50;;;-0.90;99.90;;;;;;4993816;28;20030;-75
2023/02/09 04:18:34;;;;;;;24.02;14.70;;;-0.80;99.90;;;;;;4993841;28;20104;-77
2023/02/09 04:21:00;;;;;;;25.40;13.73;;;-0.80;99.90;;;;;;4992424;28;20435;-76
2023/02/09 04:23:26;;;;;;;30.10;16.02;;;-0.70;99.90;;;;;;4993786;28;20018;-77
2023/02/09 04:25:52;;;;;;;24.73;15.82;;;-0.70;99.90;;;;;;4993814;28;20021;-78
2023/02/09 04:28:18;;;;;;;29.58;16.15;;;-0.70;99.90;;;;;;4992569;28;20030;-78
2023/02/09 04:30:43;;;;;;;24.13;14.23;;;-0.70;99.90;;;;;;4993886;28;20568;-77
2023/02/09 04:33:10;;;;;;;27.02;14.95;;;-0.70;99.90;;;;;;4992070;28;20092;-77
2023/02/09 04:35:36;;;;;;;26.63;16.73;;;-0.60;99.90;;;;;;4993766;28;20408;-77
2023/02/09 04:38:02;;;;;;;27.55;17.20;;;-0.70;99.90;;;;;;4990809;28;20543;-75
2023/02/09 04:40:28;;;;;;;25.30;16.15;;;-0.70;99.90;;;;;;5008194;28;20078;-76
2023/02/09 04:42:53;;;;;;;23.27;15.25;;;-0.70;99.90;;;;;;4993101;28;20840;-77
2023/02/09 04:45:19;;;;;;;27.27;16.65;;;-0.70;99.90;;;;;;4993192;28;20030;-75
2023/02/09 04:47:45;;;;;;;22.75;13.63;;;-0.60;99.90;;;;;;4991890;28;20468;-77
2023/02/09 04:50:11;;;;;;;21.98;14.38;;;-0.60;99.90;;;;;;4993201;28;20026;-77
2023/02/09 04:52:37;;;;;;;29.35;14.70;;;-0.70;99.90;;;;;;4992846;28;20429;-76
2023/02/09 04:55:03;;;;;;;27.85;16.30;;;-0.60;99.90;;;;;;4992957;28;20404;-77
2023/02/09 05:00:13;;;;;;;23.08;15.02;;;-0.60;99.90;;;;;;4993213;28;20096;-77
2023/02/09 05:02:39;;;;;;;24.42;15.43;;;-0.70;99.90;;;;;;4993163;28;20023;-77
2023/02/09 05:05:05;;;;;;;25.50;14.65;;;-0.60;99.90;;;;;;4991528;28;20503;-78
2023/02/09 05:07:31;;;;;;;25.33;15.70;;;-0.60;99.90;;;;;;4992826;28;20030;-77
2023/02/09 05:09:56;;;;;;;23.73;14.75;;;-0.70;99.90;;;;;;4992691;28;20109;-76
2023/02/09 05:12:22;;;;;;;31.27;16.10;;;-0.70;99.90;;;;;;4990356;28;20434;-77
2023/02/09 05:14:48;;;;;;;27.48;16.27;;;-0.80;99.90;;;;;;4992464;28;20443;-76
2023/02/09 05:17:14;;;;;;;25.77;15.60;;;-0.80;99.90;;;;;;4992667;28;20038;-77
2023/02/09 05:19:40;;;;;;;25.67;15.60;;;-0.80;99.90;;;;;;4992452;28;20041;-78
2023/02/09 05:22:05;;;;;;;25.45;15.80;;;-0.70;99.90;;;;;;4992374;28;20029;-76
2023/02/09 05:24:31;;;;;;;25.63;15.02;;;-0.70;99.90;;;;;;4992538;28;20022;-76
2023/02/09 05:26:57;;;;;;;27.33;15.23;;;-0.70;99.90;;;;;;4992345;28;20399;-78
2023/02/09 05:29:23;;;;;;;24.48;14.18;;;-0.70;99.90;;;;;;4992601;28;20022;-77
2023/02/09 05:31:49;;;;;;;26.15;14.60;;;-0.70;99.90;;;;;;4990511;28;20077;-76
2023/02/09 05:34:14;;;;;;;29.25;16.23;;;-0.70;99.90;;;;;;4992401;28;20026;-76
2023/02/09 05:36:40;;;;;;;23.27;13.98;;;-0.70;99.90;;;;;;4990720;28;20026;-77
2023/02/09 05:39:06;;;;;;;25.48;15.65;;;-0.60;99.90;;;;;;4992257;28;20045;-77
2023/02/09 05:44:16;;;;;;;23.55;15.15;;;-0.60;99.90;;;;;;4991963;28;20026;-75
2023/02/09 05:46:41;;;;;;;23.42;15.88;;;-0.60;99.90;;;;;;4992025;28;20018;-77
2023/02/09 05:49:07;;;;;;;21.17;13.73;;;-0.60;99.90;;;;;;4991787;28;20522;-74
2023/02/09 05:51:33;;;;;;;26.30;15.27;;;-0.60;99.90;;;;;;4992029;28;20367;-77
2023/02/09 05:53:59;;;;;;;24.10;14.98;;;-0.60;99.90;;;;;;4990562;28;20066;-77
2023/02/09 05:56:25;;;;;;;24.67;13.25;;;-0.60;99.90;;;;;;4991124;28;20050;-76
2023/02/09 05:58:50;;;;;;;28.38;15.43;;;-0.60;99.90;;;;;;4991389;28;20043;-76
2023/02/09 06:01:17;;;;;;;23.88;15.73;;;-0.60;99.90;;;;;;4991815;28;20101;-78
2023/02/09 06:03:43;;;;;;;31.05;15.20;;;-0.70;99.90;;;;;;4992247;28;20465;-77
2023/02/09 06:06:09;;;;;;;24.17;14.93;;;-0.70;99.90;;;;;;4990844;28;20030;-77
2023/02/09 06:08:35;;;;;;;27.45;14.80;;;-0.70;99.90;;;;;;4992174;28;20440;-78
2023/02/09 06:11:02;;;;;;;28.20;15.20;;;-0.60;99.90;;;;;;4992082;28;20022;-76
2023/02/09 06:13:28;;;;;;;;;;;-0.60;99.90;;;;;;4992601;28;20032;-78
2023/02/09 06:15:54;;;;;;;24.60;14.50;;;-0.60;99.90;;;;;;4992073;28;19914;-78
2023/02/09 06:18:20;;;;;;;25.70;14.48;;;-0.60;99.90;;;;;;4992208;28;20042;-79
2023/02/09 06:20:45;;;;;;;26.67;14.40;;;-0.50;99.90;;;;;;4991705;28;20041;-77
2023/02/09 06:23:11;;;;;;;25.35;16.50;;;-0.50;99.90;;;;;;4992086;28;20511;-77
2023/02/09 06:25:39;;;;;;;23.80;12.57;;;-0.50;99.90;;;;;;4991873;28;20018;-76
2023/02/09 06:28:04;;;;;;;21.98;12.65;;;-0.50;99.90;;;;;;4990708;28;20120;-76
2023/02/09 06:30:30;;;;;;;24.17;12.57;;;-0.40;99.90;;;;;;4990567;28;20109;-77
2023/02/09 06:32:56;;;;;;;20.67;13.15;;;-0.50;99.90;;;;;;4991872;28;20621;-78
2023/02/09 06:35:22;;;;;;;23.83;12.90;;;-0.50;99.90;;;;;;4990399;28;20388;-77
2023/02/09 06:37:48;;;;;;;21.08;13.20;;;-0.50;99.90;;;;;;4991708;28;20109;-77
2023/02/09 06:40:14;;;;;;;22.88;13.45;;;-0.50;99.90;;;;;;4991494;28;20027;-76
2023/02/09 06:42:42;;;;;;;33.35;17.05;;;-0.50;99.90;;;;;;4991490;28;20023;-78
2023/02/09 06:45:13;;;;;;;23.50;13.55;;;-0.50;99.90;;;;;;4991660;28;20377;-77
2023/02/09 06:47:43;;;;;;;22.95;13.30;;;-0.50;99.90;;;;;;4991336;28;20014;-76
2023/02/09 06:50:11;;;;;;;23.10;12.98;;;-0.50;99.90;;;;;;4991692;28;20511;-78
2023/02/09 06:52:37;;;;;;;25.70;13.65;;;-0.50;99.90;;;;;;4991460;28;20105;-77
2023/02/09 06:55:04;;;;;;;25.58;13.88;;;-0.50;99.90;;;;;;4991644;28;20070;-77
2023/02/09 06:57:31;;;;;;;26.52;14.05;;;-0.50;99.90;;;;;;4991772;28;20034;-76
2023/02/09 06:59:56;;;;;;;22.85;15.35;;;-0.50;99.90;;;;;;4991334;28;20057;-76
2023/02/09 07:02:22;;;;;;;23.05;13.80;;;-0.50;99.90;;;;;;4994074;28;20022;-76
2023/02/09 07:04:48;;;;;;;25.98;15.40;;;-0.40;99.90;;;;;;4994644;28;20027;-77
2023/02/09 07:07:15;;;;;;;26.27;12.68;;;-0.40;99.90;;;;;;4994645;28;20077;-76
2023/02/09 07:09:41;;;;;;;23.00;13.93;;;-0.30;99.90;;;;;;4993208;28;20030;-78
2023/02/09 07:12:07;;;;;;;21.63;12.15;;;-0.40;99.90;;;;;;4995234;28;20037;-76
2023/02/09 07:14:33;;;;;;;25.35;12.63;;;-0.30;99.90;;;;;;4995184;28;20073;-77
2023/02/09 07:16:59;;;;;;;19.75;12.48;;;-0.30;99.90;;;;;;4995062;28;20031;-78
2023/02/09 07:19:25;;;;;;;24.63;12.38;;;-0.20;99.90;;;;;;4994821;28;20113;-78
2023/02/09 07:21:51;;;;;;;19.13;11.60;;;-0.20;99.90;;;;;;4993257;28;20025;-77
2023/02/09 07:24:17;;;;;;;22.10;12.02;;;-0.10;99.90;;;;;;4994799;28;20023;-78
2023/02/09 07:26:43;;;;;;;17.88;11.35;;;-0.10;99.90;;;;;;4993632;28;20037;-76
2023/02/09 07:29:09;;;;;;;21.70;13.43;;;-0.10;99.90;;;;;;4994593;28;20403;-79
2023/02/09 07:31:35;;;;;;;23.83;12.45;;;0.00;99.90;;;;;;4993415;28;20023;-79
2023/02/09 07:34:02;;;;;;;22.00;13.40;;;0.10;99.90;;;;;;4994533;28;20034;-78
2023/02/09 07:36:28;;;;;;;22.30;13.15;;;0.10;99.90;;;;;;4993459;28;20108;-77
2023/02/09 07:38:55;;;;;;;22.65;11.93;;;0.20;99.90;;;;;;4994331;28;20066;-77
2023/02/09 07:41:25;;;;;;;18.13;11.38;;;0.10;99.90;;;;;;4994436;28;20027;-78
2023/02/09 07:43:51;;;;;;;23.20;13.63;;;0.10;99.90;;;;;;4993402;28;20119;-78
2023/02/09 07:46:24;;;;;;;16.35;10.88;;;0.10;99.90;;;;;;4993457;28;20026;-78
2023/02/09 07:48:52;;;;;;;17.52;10.25;;;0.10;99.90;;;;;;4994535;28;20181;-78
2023/02/09 07:51:23;;;;;;;16.02;10.40;;;0.20;99.90;;;;;;4994271;28;20018;-79
2023/02/09 07:53:54;;;;;;;18.92;10.40;;;0.10;99.90;;;;;;4994599;28;20109;-77
2023/02/09 07:56:20;;;;;;;18.70;10.93;;;0.10;99.90;;;;;;4994241;28;20053;-77
2023/02/09 07:58:46;;;;;;;21.63;12.52;;;0.20;99.90;;;;;;4994602;28;20022;-78
2023/02/09 08:01:13;;;;;;;18.10;9.18;;;0.20;99.90;;;;;;4994223;28;20543;-78
2023/02/09 08:03:41;;;;;;;17.85;9.98;;;0.20;99.90;;;;;;4994589;28;20476;-78
2023/02/09 08:06:39;;;;;;;13.63;8.68;;;0.30;99.90;;;;;;4994393;28;20427;-78
2023/02/09 08:09:05;;;;;;;15.73;7.95;;;0.30;99.90;;;;;;4991121;28;20061;-77
2023/02/09 08:11:46;;;;;;;16.38;9.52;;;0.30;99.90;;;;;;4994186;28;20065;-78
2023/02/09 08:14:47;;;;;;;16.92;9.70;;;0.30;99.90;;;;;;4994197;28;20019;-78
2023/02/09 08:17:19;;;;;;;15.95;9.13;;;0.30;99.90;;;;;;4994426;28;20395;-78
2023/02/09 08:19:53;;;;;;;14.60;7.50;;;0.30;99.90;;;;;;4994001;28;20035;-76
2023/02/09 08:22:20;;;;;;;19.30;11.32;;;0.30;99.90;;;;;;4993840;28;20089;-76
2023/02/09 08:24:46;;;;;;;22.70;13.73;;;0.30;99.90;;;;;;4992632;28;20069;-78
2023/02/09 08:27:12;;;;;;;15.98;9.68;;;0.40;99.90;;;;;;4993871;28;20038;-77
2023/02/09 08:29:38;;;;;;;15.13;7.88;;;0.40;99.90;;;;;;4993299;28;20100;-77
2023/02/09 08:32:04;;;;;;;26.42;10.10;;;0.40;99.90;;;;;;4993248;28;20142;-78
2023/02/09 08:34:30;;;;;;;17.60;9.35;;;0.50;99.90;;;;;;4993572;28;20377;-78
2023/02/09 08:36:56;;;;;;;18.52;10.70;;;0.50;99.90;;;;;;4993405;28;20033;-77
2023/02/09 08:39:21;;;;;;;15.50;10.07;;;0.50;99.90;;;;;;4993315;28;20061;-77
2023/02/09 08:41:47;;;;;;;14.38;10.27;;;0.50;99.90;;;;;;4993558;28;20030;-77
2023/02/09 08:44:13;;;;;;;19.23;11.02;;;0.50;99.90;;;;;;4993656;28;20105;-76
2023/02/09 08:46:39;;;;;;;16.17;9.07;;;0.40;99.90;;;;;;4993563;28;20026;-78
2023/02/09 08:49:05;;;;;;;17.40;9.85;;;0.50;99.90;;;;;;4993032;28;20034;-78
2023/02/09 08:51:30;;;;;;;17.27;10.25;;;0.50;99.90;;;;;;4993299;28;20018;-78
2023/02/09 08:53:56;;;;;;;18.35;10.90;;;0.50;99.90;;;;;;4993495;28;20038;-78
2023/02/09 08:56:22;;;;;;;21.98;10.98;;;0.50;99.90;;;;;;4992812;28;20072;-77
2023/02/09 08:58:48;;;;;;;20.05;11.05;;;0.50;99.90;;;;;;4992715;28;20070;-77
2023/02/09 09:01:14;;;;;;;18.75;11.13;;;0.50;99.90;;;;;;4992992;28;20022;-78
2023/02/09 09:03:41;;;;;;;22.92;13.05;;;0.50;99.90;;;;;;4992715;28;20049;-79
2023/02/09 09:06:09;;;;;;;16.33;9.70;;;0.60;99.90;;;;;;4993076;28;20384;-77
2023/02/09 09:08:37;;;;;;;17.17;11.20;;;0.60;99.90;;;;;;4992885;28;20049;-76
2023/02/09 09:11:05;;;;;;;16.52;10.52;;;0.60;99.90;;;;;;4993101;28;20491;-78
2023/02/09 09:13:32;;;;;;;24.17;12.50;;;0.70;99.90;;;;;;4992880;28;20019;-78
2023/02/09 09:15:58;;;;;;;19.65;12.65;;;0.70;99.90;;;;;;4992877;28;20193;-77
2023/02/09 09:18:25;;;;;;;19.35;10.73;;;0.60;99.90;;;;;;4992670;28;20030;-78
2023/02/09 09:20:51;;;;;;;15.98;9.68;;;0.70;99.90;;;;;;4993011;28;20042;-77
2023/02/09 09:23:17;;;;;;;16.30;9.88;;;0.70;99.90;;;;;;4992291;28;20041;-77
2023/02/09 09:25:43;;;;;;;16.17;10.30;;;0.80;99.90;;;;;;4992596;28;20018;-77
2023/02/09 09:28:09;;;;;;;14.93;10.25;;;0.90;99.90;;;;;;4991307;28;20027;-76
2023/02/09 09:30:35;;;;;;;16.10;9.60;;;0.90;99.90;;;;;;4991064;28;20081;-78
2023/02/09 09:33:01;;;;;;;19.80;10.38;;;0.90;99.90;;;;;;4993337;28;20068;-79
2023/02/09 09:35:30;;;;;;;22.33;13.15;;;0.80;99.90;;;;;;4992688;28;20022;-77
2023/02/09 09:37:57;;;;;;;21.60;12.07;;;0.80;99.90;;;;;;4992552;28;20040;-79
2023/02/09 09:40:32;;;;;;;17.73;11.60;;;0.80;99.90;;;;;;4992595;28;20034;-78
2023/02/09 09:43:02;;;;;;;17.30;10.95;;;0.90;99.90;;;;;;4989212;28;20057;-78
2023/02/09 09:45:31;;;;;;;17.17;9.27;;;1.00;99.90;;;;;;4992306;28;20026;-77
2023/02/09 09:47:57;;;;;;;17.08;9.40;;;1.00;99.90;;;;;;4992230;28;20023;-77
2023/02/09 09:50:32;;;;;;;16.90;10.07;;;0.90;99.90;;;;;;4992275;28;20113;-78
2023/02/09 09:53:04;;;;;;;16.65;10.27;;;0.90;99.90;;;;;;4992395;28;20060;-78
2023/02/09 09:55:32;;;;;;;21.02;10.05;;;0.90;99.90;;;;;;4992047;28;20504;-77
2023/02/09 09:57:59;;;;;;;;;;;0.90;99.90;;;;;;4991141;28;20468;-79
2023/02/09 10:00:29;;;;;;;15.63;9.57;;;1.00;99.90;;;;;;4990851;28;19929;-79
2023/02/09 10:02:54;;;;;;;21.30;11.70;;;1.00;99.90;;;;;;4991974;28;20034;-78
2023/02/09 10:05:26;;;;;;;22.90;14.05;;;1.10;99.90;;;;;;4991890;28;20081;-77
2023/02/09 10:08:01;;;;;;;22.45;14.88;;;1.10;99.90;;;;;;4990651;28;20049;-78
2023/02/09 10:10:33;;;;;;;29.52;15.98;;;1.10;99.90;;;;;;4992085;28;20487;-76
2023/02/09 10:13:02;;;;;;;29.17;17.80;;;1.20;99.90;;;;;;4992069;28;20111;-78
2023/02/09 10:15:34;;;;;;;30.65;18.85;;;1.30;99.90;;;;;;4992060;28;20100;-77
2023/02/09 10:18:01;;;;;;;29.65;19.50;;;1.30;99.90;;;;;;4992011;28;20396;-77
2023/02/09 10:20:46;;;;;;;31.92;17.80;;;1.20;99.90;;;;;;4992044;28;20049;-78
2023/02/09 10:23:15;;;;;;;24.88;17.27;;;1.20;99.90;;;;;;4992152;28;20027;-78
2023/02/09 10:26:21;;;;;;;31.80;21.67;;;1.20;99.90;;;;;;4991986;28;20029;-79
2023/02/09 10:28:51;;;;;;;24.23;16.73;;;1.30;99.90;;;;;;4990129;28;20026;-79
2023/02/09 10:31:22;;;;;;;27.80;17.13;;;1.30;99.90;;;;;;4990156;28;20026;-79
2023/02/09 10:33:56;;;;;;;21.67;16.40;;;1.30;99.90;;;;;;4992651;28;20376;-80
2023/02/09 10:36:31;;;;;;;22.77;15.20;;;1.40;99.90;;;;;;4986284;28;20102;-79
2023/02/09 10:39:13;;;;;;;20.83;14.63;;;1.40;99.90;;;;;;4996357;28;20030;-81
2023/02/09 10:41:42;;;;;;;18.63;12.63;;;1.50;99.90;;;;;;4992634;28;21557;-83
2023/02/09 10:44:24;;;;;;;16.27;11.43;;;1.60;99.90;;;;;;4996007;28;20018;-85
2023/02/09 10:47:22;;;;;;;21.55;14.70;;;1.50;99.90;;;;;;4996606;28;20014;-85
2023/02/09 10:49:55;;;;;;;21.05;12.73;;;1.50;99.90;;;;;;4985802;28;20439;-80
2023/02/09 10:52:23;;;;;;;18.27;12.38;;;1.50;99.90;;;;;;4995718;28;20034;-81
2023/02/09 10:54:59;;;;;;;19.55;12.95;;;1.50;99.90;;;;;;4995446;28;20650;-81
2023/02/09 10:57:30;;;;;;;21.38;16.10;;;1.60;99.90;;;;;;4995554;28;20076;-80
2023/02/09 11:00:27;;;;;;;20.00;13.30;;;1.60;99.90;;;;;;4995370;28;20073;-81
2023/02/09 11:03:00;;;;;;;20.98;13.48;;;1.60;99.90;;;;;;4981623;28;20491;-80
2023/02/09 11:05:27;;;;;;;20.58;14.25;;;1.60;99.90;;;;;;4995222;28;20030;-79
2023/02/09 11:08:11;;;;;;;;;;;1.50;99.70;;;;;;4995842;28;20025;-79
2023/02/09 11:11:24;;;;;;;19.90;11.05;;;1.50;99.70;;;;;;4995180;28;20033;-78
2023/02/09 11:13:50;;;;;;;19.92;11.57;;;1.40;99.80;;;;;;4994365;28;20497;-80
2023/02/09 11:16:24;;;;;;;19.00;12.13;;;1.40;99.70;;;;;;4994900;28;20022;-80
2023/02/09 11:19:24;;;;;;;18.88;12.80;;;1.30;99.90;;;;;;4994860;28;20065;-80
2023/02/09 11:22:00;;;;;;;20.20;13.10;;;1.40;99.80;;;;;;4982829;28;20507;-78
2023/02/09 11:24:44;;;;;;;23.70;12.10;;;1.40;99.70;;;;;;4995126;28;20105;-77
2023/02/09 11:27:54;;;;;;;17.60;12.93;;;1.30;99.70;;;;;;4994470;28;20152;-80
2023/02/09 11:30:57;;;;;;;19.63;12.98;;;1.40;99.80;;;;;;4975110;28;20092;-78
2023/02/09 11:33:33;;;;;;;21.50;11.02;;;1.40;99.80;;;;;;4992913;28;20026;-79
2023/02/09 11:36:32;;;;;;;14.55;10.20;;;1.30;99.70;;;;;;4994393;28;20029;-77
2023/02/09 11:39:08;;;;;;;22.13;10.73;;;1.30;99.70;;;;;;4994127;28;20117;-78
2023/02/09 11:44:51;;;;;;;16.95;10.02;;;1.30;99.70;;;;;;4961395;28;20031;-82
2023/02/09 11:47:44;;;;;;;19.35;11.32;;;1.30;99.60;;;;;;4993504;28;20026;-81
2023/02/09 11:50:37;;;;;;;17.15;12.05;;;1.30;99.50;;;;;;4994567;28;20396;-83
2023/02/09 11:53:16;;;;;;;21.40;11.48;;;1.40;99.60;;;;;;4994811;28;20476;-82
2023/02/09 11:55:51;;;;;;;18.60;12.07;;;1.40;99.70;;;;;;4994620;28;20133;-80
2023/02/09 11:58:44;;;;;;;18.92;12.70;;;1.40;99.40;;;;;;4992900;28;20034;-82
2023/02/09 12:01:32;;;;;;;21.23;11.63;;;1.40;99.40;;;;;;4994038;28;20512;-82
2023/02/09 12:04:16;;;;;;;17.83;11.50;;;1.40;99.30;;;;;;4986788;28;20081;-81
2023/02/09 12:06:54;;;;;;;16.13;10.38;;;1.30;99.30;;;;;;4992753;28;20499;-81
2023/02/09 12:09:50;;;;;;;17.75;11.15;;;1.40;99.30;;;;;;4994354;28;20495;-81
2023/02/09 12:12:31;;;;;;;15.35;12.75;;;1.40;99.30;;;;;;4994566;28;20062;-82
2023/02/09 12:15:12;;;;;;;20.33;12.43;;;1.40;99.20;;;;;;4993995;28;20049;-82
2023/02/09 12:17:58;;;;;;;24.05;14.65;;;1.40;99.20;;;;;;4994154;28;20122;-79
2023/02/09 12:20:34;;;;;;;26.35;16.55;;;1.40;99.10;;;;;;4993011;28;20088;-82
2023/02/09 12:23:18;;;;;;;19.30;14.50;;;1.40;98.90;;;;;;4993843;28;20065;-81
2023/02/09 12:25:59;;;;;;;20.48;13.20;;;1.40;98.90;;;;;;4992676;28;20034;-83
2023/02/09 12:28:31;;;;;;;19.42;12.30;;;1.40;98.80;;;;;;4993336;28;20027;-82
2023/02/09 12:31:01;;;;;;;14.38;11.23;;;1.40;98.60;;;;;;4993376;28;20105;-81
2023/02/09 12:33:30;;;;;;;10.85;7.07;;;1.30;98.50;;;;;;4992405;28;20026;-79
2023/02/09 12:36:02;;;;;;;10.00;6.93;;;1.30;98.30;;;;;;4993644;28;20069;-78
2023/02/09 12:38:50;;;;;;;9.18;6.50;;;1.20;98.00;;;;;;4993269;28;20105;-79
2023/02/09 12:41:33;;;;;;;11.13;6.25;;;1.30;97.90;;;;;;4989247;28;20030;-82
2023/02/09 12:44:24;;;;;;;11.65;6.50;;;1.30;97.80;;;;;;4995308;28;20065;-78
2023/02/09 12:46:54;;;;;;;10.70;5.80;;;1.30;97.60;;;;;;4994093;28;20010;-79
2023/02/09 12:49:32;;;;;;;11.05;6.65;;;1.30;97.40;;;;;;4993452;28;20476;-77
2023/02/09 12:52:01;;;;;;;8.93;5.63;;;1.30;97.30;;;;;;4992932;28;20035;-79
2023/02/09 12:54:33;;;;;;;13.00;6.20;;;1.30;97.30;;;;;;4991816;28;20337;-79
2023/02/09 12:57:17;;;;;;;6.53;4.40;;;1.30;97.10;;;;;;4993109;28;20038;-79
2023/02/09 12:59:49;;;;;;;9.65;5.20;;;1.30;96.80;;;;;;4992022;28;20049;-80
2023/02/09 13:02:37;;;;;;;8.45;5.13;;;1.30;96.60;;;;;;4993237;28;20026;-81
2023/02/09 13:05:27;;;;;;;7.38;4.97;;;1.30;96.60;;;;;;4993103;28;20022;-80